sensor_id;sensor_type;location;lat;lon;timestamp;temperature;humidity
10453;DHT22;5274;51.992;8.518;2023-02-05T00:01:38;0.70;1.00
10453;DHT22;5274;51.992;8.518;2023-02-05T00:04:04;0.80;1.00
10453;DHT22;5274;51.992;8.518;2023-02-05T00:06:29;0.80;1.00
10453;DHT22;5274;51.992;8.518;2023-02-05T00:08:56;0.80;1.00
10453;DHT22;5274;51.992;8.518;2023-02-05T00:11:22;0.80;1.00
10453;DHT22;5274;51.992;8.518;2023-02-05T00:13:47;0.80;1.00
10453;DHT22;5274;51.992;8.518;2023-02-05T00:16:18;0.80;1.00
10453;DHT22;5274;51.992;8.518;2023-02-05T00:18:44;0.90;1.00
10453;DHT22;5274;51.992;8.518;2023-02-05T00:21:11;0.90;1.00
10453;DHT22;5274;51.992;8.518;2023-02-05T00:23:37;1.00;1.00
10453;DHT22;5274;51.992;8.518;2023-02-05T00:26:04;1.00;1.00
10453;DHT22;5274;51.992;8.518;2023-02-05T00:28:33;1.10;1.00
10453;DHT22;5274;51.992;8.518;2023-02-05T00:30:59;1.10;1.00
10453;DHT22;5274;51.992;8.518;2023-02-05T00:33:25;1.10;1.00
10453;DHT22;5274;51.992;8.518;2023-02-05T00:35:50;1.10;1.00
10453;DHT22;5274;51.992;8.518;2023-02-05T00:38:16;1.20;1.00
10453;DHT22;5274;51.992;8.518;2023-02-05T00:40:41;1.20;1.00
10453;DHT22;5274;51.992;8.518;2023-02-05T00:43:07;1.30;1.00
10453;DHT22;5274;51.992;8.518;2023-02-05T00:45:33;1.30;1.00
10453;DHT22;5274;51.992;8.518;2023-02-05T00:48:05;1.20;1.00
10453;DHT22;5274;51.992;8.518;2023-02-05T00:50:32;1.20;1.00
10453;DHT22;5274;51.992;8.518;2023-02-05T00:52:58;1.20;1.00
10453;DHT22;5274;51.992;8.518;2023-02-05T00:55:23;1.20;1.00
10453;DHT22;5274;51.992;8.518;2023-02-05T00:57:49;1.10;1.00
10453;DHT22;5274;51.992;8.518;2023-02-05T01:00:15;1.00;1.00
10453;DHT22;5274;51.992;8.518;2023-02-05T01:02:41;0.90;1.00
10453;DHT22;5274;51.992;8.518;2023-02-05T01:05:06;0.90;1.00
10453;DHT22;5274;51.992;8.518;2023-02-05T01:07:32;0.90;36.40
10453;DHT22;5274;51.992;8.518;2023-02-05T01:09:57;0.80;99.90
10453;DHT22;5274;51.992;8.518;2023-02-05T01:12:23;0.80;99.90
10453;DHT22;5274;51.992;8.518;2023-02-05T01:14:49;0.80;99.90
10453;DHT22;5274;51.992;8.518;2023-02-05T01:17:15;0.80;99.90
10453;DHT22;5274;51.992;8.518;2023-02-05T01:19:41;0.80;99.90
10453;DHT22;5274;51.992;8.518;2023-02-05T01:22:06;0.90;99.90
10453;DHT22;5274;51.992;8.518;2023-02-05T01:24:32;0.90;99.90
10453;DHT22;5274;51.992;8.518;2023-02-05T01:26:58;1.00;99.90
10453;DHT22;5274;51.992;8.518;2023-02-05T01:29:25;1.10;99.90
10453;DHT22;5274;51.992;8.518;2023-02-05T01:31:51;1.10;99.90
10453;DHT22;5274;51.992;8.518;2023-02-05T01:34:16;1.10;99.90
10453;DHT22;5274;51.992;8.518;2023-02-05T01:36:42;1.10;1.00
10453;DHT22;5274;51.992;8.518;2023-02-05T01:39:08;1.20;99.90
10453;DHT22;5274;51.992;8.518;2023-02-05T01:41:34;1.20;42.50
10453;DHT22;5274;51.992;8.518;2023-02-05T01:44:20;1.30;1.00
10453;DHT22;5274;51.992;8.518;2023-02-05T01:46:52;1.30;1.00
10453;DHT22;5274;51.992;8.518;2023-02-05T01:49:22;1.30;1.00
10453;DHT22;5274;51.992;8.518;2023-02-05T01:51:48;1.30;6.00
10453;DHT22;5274;51.992;8.518;2023-02-05T01:54:15;1.40;1.00
10453;DHT22;5274;51.992;8.518;2023-02-05T01:56:45;1.40;1.00
10453;DHT22;5274;51.992;8.518;2023-02-05T01:59:16;1.40;1.00
10453;DHT22;5274;51.992;8.518;2023-02-05T02:01:43;1.30;1.00
10453;DHT22;5274;51.992;8.518;2023-02-05T02:04:10;1.40;1.00
10453;DHT22;5274;51.992;8.518;2023-02-05T02:06:37;1.40;1.00
10453;DHT22;5274;51.992;8.518;2023-02-05T02:09:04;1.40;1.00
10453;DHT22;5274;51.992;8.518;2023-02-05T02:11:33;1.50;1.00
10453;DHT22;5274;51.992;8.518;2023-02-05T02:14:00;1.50;1.00
10453;DHT22;5274;51.992;8.518;2023-02-05T02:16:27;1.50;1.00
10453;DHT22;5274;51.992;8.518;2023-02-05T02:18:53;1.50;1.00
10453;DHT22;5274;51.992;8.518;2023-02-05T02:21:30;1.60;1.00
10453;DHT22;5274;51.992;8.518;2023-02-05T02:26:55;1.60;1.00
10453;DHT22;5274;51.992;8.518;2023-02-05T02:32:20;1.60;1.00
10453;DHT22;5274;51.992;8.518;2023-02-05T02:34:53;1.60;1.00
10453;DHT22;5274;51.992;8.518;2023-02-05T02:37:25;1.60;1.00
10453;DHT22;5274;51.992;8.518;2023-02-05T02:40:05;1.70;1.00
10453;DHT22;5274;51.992;8.518;2023-02-05T02:42:36;1.70;1.00
10453;DHT22;5274;51.992;8.518;2023-02-05T02:45:07;1.70;1.00
10453;DHT22;5274;51.992;8.518;2023-02-05T02:47:37;1.80;1.00
10453;DHT22;5274;51.992;8.518;2023-02-05T02:50:10;1.80;1.00
10453;DHT22;5274;51.992;8.518;2023-02-05T02:52:40;1.90;1.00
10453;DHT22;5274;51.992;8.518;2023-02-05T02:55:10;1.90;1.00
10453;DHT22;5274;51.992;8.518;2023-02-05T02:57:38;1.90;1.00
10453;DHT22;5274;51.992;8.518;2023-02-05T03:00:09;1.90;1.00
10453;DHT22;5274;51.992;8.518;2023-02-05T03:02:36;1.90;99.90
10453;DHT22;5274;51.992;8.518;2023-02-05T03:05:06;1.90;1.00
10453;DHT22;5274;51.992;8.518;2023-02-05T03:07:35;2.00;99.90
10453;DHT22;5274;51.992;8.518;2023-02-05T03:10:11;2.00;99.90
10453;DHT22;5274;51.992;8.518;2023-02-05T03:12:38;2.00;79.70
10453;DHT22;5274;51.992;8.518;2023-02-05T03:15:05;1.90;99.90
10453;DHT22;5274;51.992;8.518;2023-02-05T03:17:31;2.00;1.00
10453;DHT22;5274;51.992;8.518;2023-02-05T03:20:09;2.00;1.00
10453;DHT22;5274;51.992;8.518;2023-02-05T03:22:35;2.00;1.00
10453;DHT22;5274;51.992;8.518;2023-02-05T03:25:02;2.00;1.00
10453;DHT22;5274;51.992;8.518;2023-02-05T03:27:28;2.00;99.90
10453;DHT22;5274;51.992;8.518;2023-02-05T03:29:53;2.00;99.90
10453;DHT22;5274;51.992;8.518;2023-02-05T03:32:47;2.00;1.00
10453;DHT22;5274;51.992;8.518;2023-02-05T03:35:37;2.00;99.90
10453;DHT22;5274;51.992;8.518;2023-02-05T03:38:26;2.10;1.00
10453;DHT22;5274;51.992;8.518;2023-02-05T03:43:55;2.10;1.00
10453;DHT22;5274;51.992;8.518;2023-02-05T03:51:38;2.20;1.00
10453;DHT22;5274;51.992;8.518;2023-02-05T03:59:54;2.20;1.00
10453;DHT22;5274;51.992;8.518;2023-02-05T04:02:21;2.30;99.90
10453;DHT22;5274;51.992;8.518;2023-02-05T04:04:47;2.30;99.90
10453;DHT22;5274;51.992;8.518;2023-02-05T04:07:13;2.30;99.90
10453;DHT22;5274;51.992;8.518;2023-02-05T04:09:38;2.40;99.90
10453;DHT22;5274;51.992;8.518;2023-02-05T04:12:04;2.40;99.90
10453;DHT22;5274;51.992;8.518;2023-02-05T04:14:29;2.40;1.00
10453;DHT22;5274;51.992;8.518;2023-02-05T04:16:55;2.40;1.00
10453;DHT22;5274;51.992;8.518;2023-02-05T04:19:20;2.40;1.00
10453;DHT22;5274;51.992;8.518;2023-02-05T04:21:46;2.40;1.00
10453;DHT22;5274;51.992;8.518;2023-02-05T04:24:11;2.50;1.00
10453;DHT22;5274;51.992;8.518;2023-02-05T04:26:37;2.50;1.00
10453;DHT22;5274;51.992;8.518;2023-02-05T04:29:02;2.50;99.90
10453;DHT22;5274;51.992;8.518;2023-02-05T04:31:28;2.50;99.90
10453;DHT22;5274;51.992;8.518;2023-02-05T04:33:53;2.60;99.90
10453;DHT22;5274;51.992;8.518;2023-02-05T04:36:19;2.60;99.90
10453;DHT22;5274;51.992;8.518;2023-02-05T04:38:44;2.60;99.90
10453;DHT22;5274;51.992;8.518;2023-02-05T04:41:10;2.50;99.90
10453;DHT22;5274;51.992;8.518;2023-02-05T04:43:35;2.60;1.00
10453;DHT22;5274;51.992;8.518;2023-02-05T04:46:09;2.60;1.00
10453;DHT22;5274;51.992;8.518;2023-02-05T04:48:35;2.60;1.00
10453;DHT22;5274;51.992;8.518;2023-02-05T04:51:09;2.60;1.00
10453;DHT22;5274;51.992;8.518;2023-02-05T04:53:35;2.60;1.00
10453;DHT22;5274;51.992;8.518;2023-02-05T04:58:34;2.50;31.10
10453;DHT22;5274;51.992;8.518;2023-02-05T05:01:00;2.50;42.20
10453;DHT22;5274;51.992;8.518;2023-02-05T05:03:26;2.30;75.80
10453;DHT22;5274;51.992;8.518;2023-02-05T05:05:51;2.20;99.90
10453;DHT22;5274;51.992;8.518;2023-02-05T05:08:17;2.30;99.90
10453;DHT22;5274;51.992;8.518;2023-02-05T05:10:43;2.20;99.90
10453;DHT22;5274;51.992;8.518;2023-02-05T05:13:09;2.20;99.90
10453;DHT22;5274;51.992;8.518;2023-02-05T05:15:34;2.20;99.90
10453;DHT22;5274;51.992;8.518;2023-02-05T05:18:00;2.20;99.90
10453;DHT22;5274;51.992;8.518;2023-02-05T05:20:25;2.20;99.90
10453;DHT22;5274;51.992;8.518;2023-02-05T05:22:51;2.30;1.00
10453;DHT22;5274;51.992;8.518;2023-02-05T05:25:16;2.30;99.90
10453;DHT22;5274;51.992;8.518;2023-02-05T05:27:42;2.30;99.90
10453;DHT22;5274;51.992;8.518;2023-02-05T05:30:08;2.20;99.90
10453;DHT22;5274;51.992;8.518;2023-02-05T05:32:34;2.30;1.00
10453;DHT22;5274;51.992;8.518;2023-02-05T05:34:59;2.30;1.00
10453;DHT22;5274;51.992;8.518;2023-02-05T05:37:25;2.30;99.90
10453;DHT22;5274;51.992;8.518;2023-02-05T05:39:50;2.30;91.20
10453;DHT22;5274;51.992;8.518;2023-02-05T05:42:34;2.30;99.90
10453;DHT22;5274;51.992;8.518;2023-02-05T05:45:20;2.30;1.00
10453;DHT22;5274;51.992;8.518;2023-02-05T05:47:45;2.40;1.00
10453;DHT22;5274;51.992;8.518;2023-02-05T05:50:11;2.30;1.00
10453;DHT22;5274;51.992;8.518;2023-02-05T05:52:36;2.30;10.30
10453;DHT22;5274;51.992;8.518;2023-02-05T05:55:02;2.40;99.90
10453;DHT22;5274;51.992;8.518;2023-02-05T05:57:27;2.40;99.90
10453;DHT22;5274;51.992;8.518;2023-02-05T05:59:53;2.40;99.90
10453;DHT22;5274;51.992;8.518;2023-02-05T06:02:18;2.40;90.70
10453;DHT22;5274;51.992;8.518;2023-02-05T06:04:44;2.50;99.90
10453;DHT22;5274;51.992;8.518;2023-02-05T06:07:10;2.60;99.90
10453;DHT22;5274;51.992;8.518;2023-02-05T06:09:35;2.60;99.90
10453;DHT22;5274;51.992;8.518;2023-02-05T06:12:01;2.60;99.90
10453;DHT22;5274;51.992;8.518;2023-02-05T06:14:26;2.60;99.90
10453;DHT22;5274;51.992;8.518;2023-02-05T06:16:52;2.50;99.90
10453;DHT22;5274;51.992;8.518;2023-02-05T06:19:19;2.50;99.90
10453;DHT22;5274;51.992;8.518;2023-02-05T06:21:44;2.50;99.90
10453;DHT22;5274;51.992;8.518;2023-02-05T06:24:10;2.50;99.90
10453;DHT22;5274;51.992;8.518;2023-02-05T06:26:35;2.50;1.00
10453;DHT22;5274;51.992;8.518;2023-02-05T06:29:01;2.50;99.90
10453;DHT22;5274;51.992;8.518;2023-02-05T06:31:29;2.50;1.00
10453;DHT22;5274;51.992;8.518;2023-02-05T06:33:54;2.50;7.40
10453;DHT22;5274;51.992;8.518;2023-02-05T06:36:20;2.60;1.00
10453;DHT22;5274;51.992;8.518;2023-02-05T06:38:45;2.60;99.90
10453;DHT22;5274;51.992;8.518;2023-02-05T06:41:11;2.50;99.90
10453;DHT22;5274;51.992;8.518;2023-02-05T06:43:36;2.60;99.90
10453;DHT22;5274;51.992;8.518;2023-02-05T06:46:02;2.60;99.90
10453;DHT22;5274;51.992;8.518;2023-02-05T06:48:27;2.60;99.90
10453;DHT22;5274;51.992;8.518;2023-02-05T06:50:53;2.70;99.90
10453;DHT22;5274;51.992;8.518;2023-02-05T06:53:18;2.70;99.90
10453;DHT22;5274;51.992;8.518;2023-02-05T06:55:44;2.50;99.90
10453;DHT22;5274;51.992;8.518;2023-02-05T06:58:09;2.60;99.90
10453;DHT22;5274;51.992;8.518;2023-02-05T07:00:35;2.60;99.90
10453;DHT22;5274;51.992;8.518;2023-02-05T07:03:00;2.60;99.90
10453;DHT22;5274;51.992;8.518;2023-02-05T07:05:26;2.60;99.90
10453;DHT22;5274;51.992;8.518;2023-02-05T07:07:52;2.50;18.40
10453;DHT22;5274;51.992;8.518;2023-02-05T07:10:17;1.80;1.00
10453;DHT22;5274;51.992;8.518;2023-02-05T07:12:43;2.60;1.00
10453;DHT22;5274;51.992;8.518;2023-02-05T07:15:09;2.70;99.90
10453;DHT22;5274;51.992;8.518;2023-02-05T07:17:34;2.60;99.90
10453;DHT22;5274;51.992;8.518;2023-02-05T07:20:00;2.60;99.90
10453;DHT22;5274;51.992;8.518;2023-02-05T07:22:25;2.80;99.90
10453;DHT22;5274;51.992;8.518;2023-02-05T07:24:51;2.70;99.90
10453;DHT22;5274;51.992;8.518;2023-02-05T07:27:16;2.60;99.90
10453;DHT22;5274;51.992;8.518;2023-02-05T07:29:42;2.60;99.90
10453;DHT22;5274;51.992;8.518;2023-02-05T07:32:08;2.70;99.90
10453;DHT22;5274;51.992;8.518;2023-02-05T07:34:33;2.70;99.90
10453;DHT22;5274;51.992;8.518;2023-02-05T07:36:59;2.70;99.90
10453;DHT22;5274;51.992;8.518;2023-02-05T07:39:24;2.80;1.00
10453;DHT22;5274;51.992;8.518;2023-02-05T07:41:52;2.80;99.90
10453;DHT22;5274;51.992;8.518;2023-02-05T07:44:18;2.90;99.90
10453;DHT22;5274;51.992;8.518;2023-02-05T07:46:43;2.90;1.00
10453;DHT22;5274;51.992;8.518;2023-02-05T07:49:09;2.90;99.90
10453;DHT22;5274;51.992;8.518;2023-02-05T07:51:35;3.00;99.90
10453;DHT22;5274;51.992;8.518;2023-02-05T07:54:06;3.00;99.90
10453;DHT22;5274;51.992;8.518;2023-02-05T07:56:31;3.00;99.90
10453;DHT22;5274;51.992;8.518;2023-02-05T07:58:57;3.10;99.90
10453;DHT22;5274;51.992;8.518;2023-02-05T08:01:22;3.10;99.90
10453;DHT22;5274;51.992;8.518;2023-02-05T08:03:48;3.20;99.90
10453;DHT22;5274;51.992;8.518;2023-02-05T08:06:14;3.20;99.90
10453;DHT22;5274;51.992;8.518;2023-02-05T08:08:41;3.20;99.90
10453;DHT22;5274;51.992;8.518;2023-02-05T08:11:09;3.30;99.90
10453;DHT22;5274;51.992;8.518;2023-02-05T08:13:37;3.30;99.90
10453;DHT22;5274;51.992;8.518;2023-02-05T08:16:06;3.30;99.90
10453;DHT22;5274;51.992;8.518;2023-02-05T08:18:32;3.30;99.90
10453;DHT22;5274;51.992;8.518;2023-02-05T08:20:58;3.20;99.90
10453;DHT22;5274;51.992;8.518;2023-02-05T08:23:23;3.30;99.90
10453;DHT22;5274;51.992;8.518;2023-02-05T08:25:53;3.30;99.90
10453;DHT22;5274;51.992;8.518;2023-02-05T08:28:19;3.30;99.90
10453;DHT22;5274;51.992;8.518;2023-02-05T08:30:44;3.40;99.90
10453;DHT22;5274;51.992;8.518;2023-02-05T08:33:10;3.50;99.90
10453;DHT22;5274;51.992;8.518;2023-02-05T08:35:35;3.50;99.90
10453;DHT22;5274;51.992;8.518;2023-02-05T08:38:01;3.50;99.90
10453;DHT22;5274;51.992;8.518;2023-02-05T08:40:27;3.50;99.90
10453;DHT22;5274;51.992;8.518;2023-02-05T08:42:52;3.40;99.90
10453;DHT22;5274;51.992;8.518;2023-02-05T08:45:25;3.40;99.90
10453;DHT22;5274;51.992;8.518;2023-02-05T08:47:50;3.50;1.00
10453;DHT22;5274;51.992;8.518;2023-02-05T08:50:17;3.50;1.00
10453;DHT22;5274;51.992;8.518;2023-02-05T08:52:42;3.60;99.90
10453;DHT22;5274;51.992;8.518;2023-02-05T08:55:08;3.70;1.00
10453;DHT22;5274;51.992;8.518;2023-02-05T08:57:34;3.70;99.90
10453;DHT22;5274;51.992;8.518;2023-02-05T08:59:59;3.70;1.00
10453;DHT22;5274;51.992;8.518;2023-02-05T09:02:25;3.70;1.00
10453;DHT22;5274;51.992;8.518;2023-02-05T09:04:50;3.80;99.90
10453;DHT22;5274;51.992;8.518;2023-02-05T09:07:16;3.80;1.00
10453;DHT22;5274;51.992;8.518;2023-02-05T09:09:41;3.90;1.00
10453;DHT22;5274;51.992;8.518;2023-02-05T09:12:07;3.80;1.00
10453;DHT22;5274;51.992;8.518;2023-02-05T09:14:35;3.80;1.00
10453;DHT22;5274;51.992;8.518;2023-02-05T09:17:05;3.80;1.00
10453;DHT22;5274;51.992;8.518;2023-02-05T09:19:39;3.80;1.00
10453;DHT22;5274;51.992;8.518;2023-02-05T09:22:05;3.90;99.90
10453;DHT22;5274;51.992;8.518;2023-02-05T09:24:31;3.80;99.90
10453;DHT22;5274;51.992;8.518;2023-02-05T09:26:57;3.80;99.90
10453;DHT22;5274;51.992;8.518;2023-02-05T09:29:23;3.80;99.90
10453;DHT22;5274;51.992;8.518;2023-02-05T09:31:49;3.80;99.90
10453;DHT22;5274;51.992;8.518;2023-02-05T09:34:14;3.90;99.90
10453;DHT22;5274;51.992;8.518;2023-02-05T09:36:40;3.90;99.90
10453;DHT22;5274;51.992;8.518;2023-02-05T09:39:07;3.90;99.90
10453;DHT22;5274;51.992;8.518;2023-02-05T09:47:19;3.90;99.90
10453;DHT22;5274;51.992;8.518;2023-02-05T09:49:55;4.00;99.90
10453;DHT22;5274;51.992;8.518;2023-02-05T09:52:38;4.00;99.90
10453;DHT22;5274;51.992;8.518;2023-02-05T09:55:20;4.10;99.90
10453;DHT22;5274;51.992;8.518;2023-02-05T09:57:47;4.20;99.90
10453;DHT22;5274;51.992;8.518;2023-02-05T10:00:30;4.20;99.90
10453;DHT22;5274;51.992;8.518;2023-02-05T10:03:25;4.30;99.90
10453;DHT22;5274;51.992;8.518;2023-02-05T10:23:14;5.30;1.00
10453;DHT22;5274;51.992;8.518;2023-02-05T10:29:01;5.60;99.90
10453;DHT22;5274;51.992;8.518;2023-02-05T10:31:43;5.90;1.00
10453;DHT22;5274;51.992;8.518;2023-02-05T10:34:51;5.90;99.90
10453;DHT22;5274;51.992;8.518;2023-02-05T10:37:26;6.10;99.90
10453;DHT22;5274;51.992;8.518;2023-02-05T10:39:55;6.30;99.90
10453;DHT22;5274;51.992;8.518;2023-02-05T10:42:32;6.40;99.90
10453;DHT22;5274;51.992;8.518;2023-02-05T10:45:13;6.60;99.90
10453;DHT22;5274;51.992;8.518;2023-02-05T10:50:22;6.90;1.00
10453;DHT22;5274;51.992;8.518;2023-02-05T10:52:50;6.90;16.80
10453;DHT22;5274;51.992;8.518;2023-02-05T10:55:15;7.00;99.90
10453;DHT22;5274;51.992;8.518;2023-02-05T10:57:41;7.00;99.90
10453;DHT22;5274;51.992;8.518;2023-02-05T11:00:20;7.10;99.90
10453;DHT22;5274;51.992;8.518;2023-02-05T11:02:53;7.10;99.90
10453;DHT22;5274;51.992;8.518;2023-02-05T11:05:36;7.20;99.90
10453;DHT22;5274;51.992;8.518;2023-02-05T11:08:03;7.10;99.90
10453;DHT22;5274;51.992;8.518;2023-02-05T11:10:31;6.80;99.90
10453;DHT22;5274;51.992;8.518;2023-02-05T11:13:18;7.10;99.90
10453;DHT22;5274;51.992;8.518;2023-02-05T11:16:03;7.00;99.90
10453;DHT22;5274;51.992;8.518;2023-02-05T11:18:43;7.30;99.90
10453;DHT22;5274;51.992;8.518;2023-02-05T11:21:10;7.60;99.90
10453;DHT22;5274;51.992;8.518;2023-02-05T11:23:37;7.70;99.90
10453;DHT22;5274;51.992;8.518;2023-02-05T11:26:17;8.10;99.90
10453;DHT22;5274;51.992;8.518;2023-02-05T11:28:44;8.30;99.90
10453;DHT22;5274;51.992;8.518;2023-02-05T11:31:26;8.40;99.90
10453;DHT22;5274;51.992;8.518;2023-02-05T11:36:33;8.20;1.00
10453;DHT22;5274;51.992;8.518;2023-02-05T11:38:58;8.10;99.90
10453;DHT22;5274;51.992;8.518;2023-02-05T11:41:33;8.10;99.90
10453;DHT22;5274;51.992;8.518;2023-02-05T11:44:18;8.00;99.90
10453;DHT22;5274;51.992;8.518;2023-02-05T11:46:45;7.90;99.90
10453;DHT22;5274;51.992;8.518;2023-02-05T11:49:20;7.80;99.90
10453;DHT22;5274;51.992;8.518;2023-02-05T11:51:48;7.70;99.90
10453;DHT22;5274;51.992;8.518;2023-02-05T11:54:28;7.70;99.90
10453;DHT22;5274;51.992;8.518;2023-02-05T12:00:35;7.80;99.90
10453;DHT22;5274;51.992;8.518;2023-02-05T12:02:42;7.90;99.90
10453;DHT22;5274;51.992;8.518;2023-02-05T12:05:17;7.90;99.90
10453;DHT22;5274;51.992;8.518;2023-02-05T12:10:31;7.60;99.90
10453;DHT22;5274;51.992;8.518;2023-02-05T12:13:23;7.50;99.90
10453;DHT22;5274;51.992;8.518;2023-02-05T12:19:00;7.40;1.00
10453;DHT22;5274;51.992;8.518;2023-02-05T12:21:33;7.40;79.90
10453;DHT22;5274;51.992;8.518;2023-02-05T12:25:03;7.50;99.90
10453;DHT22;5274;51.992;8.518;2023-02-05T12:35:14;6.70;99.90
10453;DHT22;5274;51.992;8.518;2023-02-05T12:40:50;6.80;99.90
10453;DHT22;5274;51.992;8.518;2023-02-05T12:43:39;6.60;99.90
10453;DHT22;5274;51.992;8.518;2023-02-05T12:46:23;6.70;99.90
10453;DHT22;5274;51.992;8.518;2023-02-05T12:51:59;6.70;99.90
10453;DHT22;5274;51.992;8.518;2023-02-05T12:54:50;6.50;99.90
10453;DHT22;5274;51.992;8.518;2023-02-05T12:57:20;6.70;99.90
10453;DHT22;5274;51.992;8.518;2023-02-05T12:59:51;6.60;99.90
10453;DHT22;5274;51.992;8.518;2023-02-05T13:05:58;6.60;99.90
10453;DHT22;5274;51.992;8.518;2023-02-05T13:08:42;6.50;99.90
10453;DHT22;5274;51.992;8.518;2023-02-05T13:11:26;6.40;99.90
10453;DHT22;5274;51.992;8.518;2023-02-05T13:14:05;6.00;99.90
10453;DHT22;5274;51.992;8.518;2023-02-05T13:21:43;6.30;99.90
10453;DHT22;5274;51.992;8.518;2023-02-05T13:24:31;6.40;99.90
10453;DHT22;5274;51.992;8.518;2023-02-05T13:27:24;5.90;99.90
10453;DHT22;5274;51.992;8.518;2023-02-05T13:30:14;6.00;99.90
10453;DHT22;5274;51.992;8.518;2023-02-05T13:32:43;6.00;99.90
10453;DHT22;5274;51.992;8.518;2023-02-05T13:35:10;5.90;99.90
10453;DHT22;5274;51.992;8.518;2023-02-05T13:37:40;5.90;99.90
10453;DHT22;5274;51.992;8.518;2023-02-05T13:40:34;5.80;99.90
10453;DHT22;5274;51.992;8.518;2023-02-05T13:46:03;5.60;99.90
10453;DHT22;5274;51.992;8.518;2023-02-05T13:49:37;5.60;99.90
10453;DHT22;5274;51.992;8.518;2023-02-05T13:59:40;5.50;99.90
10453;DHT22;5274;51.992;8.518;2023-02-05T14:04:51;5.60;99.90
10453;DHT22;5274;51.992;8.518;2023-02-05T14:07:45;5.60;99.90
10453;DHT22;5274;51.992;8.518;2023-02-05T14:10:29;5.70;99.90
10453;DHT22;5274;51.992;8.518;2023-02-05T14:13:20;5.50;1.00
10453;DHT22;5274;51.992;8.518;2023-02-05T14:15:47;5.50;1.00
10453;DHT22;5274;51.992;8.518;2023-02-05T14:23:55;5.50;82.00
10453;DHT22;5274;51.992;8.518;2023-02-05T14:26:45;5.50;99.90
10453;DHT22;5274;51.992;8.518;2023-02-05T14:32:02;5.60;99.90
10453;DHT22;5274;51.992;8.518;2023-02-05T14:36:56;5.30;99.90
10453;DHT22;5274;51.992;8.518;2023-02-05T14:39:28;5.30;1.00
10453;DHT22;5274;51.992;8.518;2023-02-05T14:41:57;5.40;99.90
10453;DHT22;5274;51.992;8.518;2023-02-05T14:44:32;5.50;99.90
10453;DHT22;5274;51.992;8.518;2023-02-05T14:47:21;5.40;90.60
10453;DHT22;5274;51.992;8.518;2023-02-05T14:49:47;5.30;1.00
10453;DHT22;5274;51.992;8.518;2023-02-05T14:52:39;5.40;1.00
10453;DHT22;5274;51.992;8.518;2023-02-05T14:57:47;5.30;99.90
10453;DHT22;5274;51.992;8.518;2023-02-05T15:00:21;5.30;1.00
10453;DHT22;5274;51.992;8.518;2023-02-05T15:05:33;5.10;1.00
10453;DHT22;5274;51.992;8.518;2023-02-05T15:08:12;5.20;99.90
10453;DHT22;5274;51.992;8.518;2023-02-05T15:13:29;5.20;99.90
10453;DHT22;5274;51.992;8.518;2023-02-05T15:18:43;5.10;99.90
10453;DHT22;5274;51.992;8.518;2023-02-05T15:21:22;5.00;1.00
10453;DHT22;5274;51.992;8.518;2023-02-05T15:24:05;5.00;40.40
10453;DHT22;5274;51.992;8.518;2023-02-05T15:26:54;5.00;33.40
10453;DHT22;5274;51.992;8.518;2023-02-05T15:31:51;4.80;52.40
10453;DHT22;5274;51.992;8.518;2023-02-05T15:34:37;4.80;99.90
10453;DHT22;5274;51.992;8.518;2023-02-05T15:37:17;4.90;53.50
10453;DHT22;5274;51.992;8.518;2023-02-05T15:39:54;4.90;1.00
10453;DHT22;5274;51.992;8.518;2023-02-05T15:42:43;4.80;99.90
10453;DHT22;5274;51.992;8.518;2023-02-05T15:45:35;4.80;99.90
10453;DHT22;5274;51.992;8.518;2023-02-05T15:50:58;4.70;99.90
10453;DHT22;5274;51.992;8.518;2023-02-05T15:53:45;4.70;99.90
10453;DHT22;5274;51.992;8.518;2023-02-05T15:59:02;4.50;99.90
10453;DHT22;5274;51.992;8.518;2023-02-05T16:01:34;4.50;99.90
10453;DHT22;5274;51.992;8.518;2023-02-05T16:04:01;4.60;1.00
10453;DHT22;5274;51.992;8.518;2023-02-05T16:06:28;4.50;99.90
10453;DHT22;5274;51.992;8.518;2023-02-05T16:08:55;4.50;1.00
10453;DHT22;5274;51.992;8.518;2023-02-05T16:11:32;4.50;99.90
10453;DHT22;5274;51.992;8.518;2023-02-05T16:19:34;4.40;99.90
10453;DHT22;5274;51.992;8.518;2023-02-05T16:22:19;4.40;99.90
10453;DHT22;5274;51.992;8.518;2023-02-05T16:24:47;4.40;99.90
10453;DHT22;5274;51.992;8.518;2023-02-05T16:27:18;4.50;99.90
10453;DHT22;5274;51.992;8.518;2023-02-05T16:29:49;4.40;99.90
10453;DHT22;5274;51.992;8.518;2023-02-05T16:34:52;4.40;99.90
10453;DHT22;5274;51.992;8.518;2023-02-05T16:37:18;4.40;99.90
10453;DHT22;5274;51.992;8.518;2023-02-05T16:39:50;4.40;1.20
10453;DHT22;5274;51.992;8.518;2023-02-05T16:42:40;4.30;17.10
10453;DHT22;5274;51.992;8.518;2023-02-05T16:47:34;4.40;99.90
10453;DHT22;5274;51.992;8.518;2023-02-05T16:49:59;4.30;99.90
10453;DHT22;5274;51.992;8.518;2023-02-05T16:54:55;4.40;99.90
10453;DHT22;5274;51.992;8.518;2023-02-05T16:57:37;4.40;99.90
10453;DHT22;5274;51.992;8.518;2023-02-05T17:00:19;4.30;99.90
10453;DHT22;5274;51.992;8.518;2023-02-05T17:02:45;4.30;99.90
10453;DHT22;5274;51.992;8.518;2023-02-05T17:05:30;4.40;99.90
10453;DHT22;5274;51.992;8.518;2023-02-05T17:08:06;4.30;99.90
10453;DHT22;5274;51.992;8.518;2023-02-05T17:10:54;4.30;1.00
10453;DHT22;5274;51.992;8.518;2023-02-05T17:13:32;4.30;99.90
10453;DHT22;5274;51.992;8.518;2023-02-05T17:16:24;4.30;99.90
10453;DHT22;5274;51.992;8.518;2023-02-05T17:18:55;4.30;99.90
10453;DHT22;5274;51.992;8.518;2023-02-05T17:21:23;4.30;99.90
10453;DHT22;5274;51.992;8.518;2023-02-05T17:23:50;4.30;99.90
10453;DHT22;5274;51.992;8.518;2023-02-05T17:26:16;4.30;99.90
10453;DHT22;5274;51.992;8.518;2023-02-05T17:28:54;4.30;99.90
10453;DHT22;5274;51.992;8.518;2023-02-05T17:31:21;4.30;99.90
10453;DHT22;5274;51.992;8.518;2023-02-05T17:33:52;4.30;99.90
10453;DHT22;5274;51.992;8.518;2023-02-05T17:36:17;4.10;99.90
10453;DHT22;5274;51.992;8.518;2023-02-05T17:38:43;4.10;99.90
10453;DHT22;5274;51.992;8.518;2023-02-05T17:41:17;4.00;99.90
10453;DHT22;5274;51.992;8.518;2023-02-05T17:44:03;3.90;99.90
10453;DHT22;5274;51.992;8.518;2023-02-05T17:46:29;3.90;99.90
10453;DHT22;5274;51.992;8.518;2023-02-05T17:48:54;4.00;99.90
10453;DHT22;5274;51.992;8.518;2023-02-05T17:51:21;4.00;99.90
10453;DHT22;5274;51.992;8.518;2023-02-05T17:53:48;3.90;1.00
10453;DHT22;5274;51.992;8.518;2023-02-05T17:56:13;3.90;99.90
10453;DHT22;5274;51.992;8.518;2023-02-05T17:58:39;3.90;99.90
10453;DHT22;5274;51.992;8.518;2023-02-05T18:01:06;4.00;99.90
10453;DHT22;5274;51.992;8.518;2023-02-05T18:03:31;3.90;99.90
10453;DHT22;5274;51.992;8.518;2023-02-05T18:05:57;3.90;99.90
10453;DHT22;5274;51.992;8.518;2023-02-05T18:08:23;3.90;99.90
10453;DHT22;5274;51.992;8.518;2023-02-05T18:10:49;3.90;99.90
10453;DHT22;5274;51.992;8.518;2023-02-05T18:13:15;3.90;99.90
10453;DHT22;5274;51.992;8.518;2023-02-05T18:15:42;3.90;99.90
10453;DHT22;5274;51.992;8.518;2023-02-05T18:18:08;4.00;99.90
10453;DHT22;5274;51.992;8.518;2023-02-05T18:20:34;3.90;99.90
10453;DHT22;5274;51.992;8.518;2023-02-05T18:23:00;3.80;99.90
10453;DHT22;5274;51.992;8.518;2023-02-05T18:25:27;3.90;99.90
10453;DHT22;5274;51.992;8.518;2023-02-05T18:27:53;3.80;99.90
10453;DHT22;5274;51.992;8.518;2023-02-05T18:30:20;3.60;99.90
10453;DHT22;5274;51.992;8.518;2023-02-05T18:32:46;3.70;99.90
10453;DHT22;5274;51.992;8.518;2023-02-05T18:35:11;4.20;99.90
10453;DHT22;5274;51.992;8.518;2023-02-05T18:37:39;3.80;99.90
10453;DHT22;5274;51.992;8.518;2023-02-05T18:40:05;3.80;99.90
10453;DHT22;5274;51.992;8.518;2023-02-05T18:42:31;3.80;99.90
10453;DHT22;5274;51.992;8.518;2023-02-05T18:44:56;3.90;99.50
10453;DHT22;5274;51.992;8.518;2023-02-05T18:47:22;3.80;99.90
10453;DHT22;5274;51.992;8.518;2023-02-05T18:49:47;3.80;84.40